Sajir — V7HL4 — position and weather

sailwx.info

Track history (hours):
 
Tides and Currents Weather Stations Pressure Air Temp Water Temp Dewpoint Dewpoint Depression Visibility Wind Speed Wind Dir Waves Ship Positions

Sajir

Last reported at 2018-Jun-23 21:19 UTC. Time now 2018-Jun-24 05:14 UTC.
Position N 36°40' E 013°36'.

Length 368 m; draft 15.4 m.

Type: Ship (hazmat cat A). MMSI: 538005839.

Date/timePositionNaut miles runAvg speedWind from/ knotsBaromVisibWave heightAir tempDewpointWater temp
2018-Jun-23 21:19N 36°40' E 013°36'618.0
2018-Jun-23 21:00N 36°38' E 013°43'918.0
2018-Jun-23 20:29N 36°36' E 013°54'917.8
2018-Jun-23 20:00N 36°33' E 014°04'1017.8
2018-Jun-23 19:27N 36°30' E 014°16'818.1
2018-Jun-23 19:00N 36°28' E 014°25'1018.6
2018-Jun-23 18:29N 36°25' E 014°37'918.3
2018-Jun-23 18:00N 36°22' E 014°47'918.1
2018-Jun-23 17:30N 36°20' E 014°58'918.2
2018-Jun-23 17:00N 36°17' E 015°09'918.1
2018-Jun-23 16:29N 36°14' E 015°20'918.2
2018-Jun-23 15:59N 36°11' E 015°31'  
Track history (hours):
 
Tides and Currents Weather Stations Pressure Air Temp Water Temp Dewpoint Dewpoint Depression Visibility Wind Speed Wind Dir Waves Ship Positions

Sajir

Last reported at 2018-Jun-23 21:19 UTC. Time now 2018-Jun-24 05:14 UTC.
Position N 36°40' E 013°36'.

Length 368 m; draft 15.4 m.

Type: Ship (hazmat cat A). MMSI: 538005839.

Date/timePositionNaut miles runAvg speedWind from/ knotsBaromVisibWave heightAir tempDewpointWater temp
2018-Jun-23 21:19N 36°40' E 013°36'618.0
2018-Jun-23 21:00N 36°38' E 013°43'918.0
2018-Jun-23 20:29N 36°36' E 013°54'917.8
2018-Jun-23 20:00N 36°33' E 014°04'1017.8
2018-Jun-23 19:27N 36°30' E 014°16'818.1
2018-Jun-23 19:00N 36°28' E 014°25'1018.6
2018-Jun-23 18:29N 36°25' E 014°37'918.3
2018-Jun-23 18:00N 36°22' E 014°47'918.1
2018-Jun-23 17:30N 36°20' E 014°58'918.2
2018-Jun-23 17:00N 36°17' E 015°09'918.1
2018-Jun-23 16:29N 36°14' E 015°20'918.2
2018-Jun-23 15:59N 36°11' E 015°31'  

Dump ship's entire track history